This is the latest recevied weather packets stored in our database for station/object W3BRL. If no packets are shown the sender has not sent any weather packets the latest 10 day(s).
| Time | Temp. | Humidity | Pressure | Rain* | Wind** | Luminosity | Snow |
|---|---|---|---|---|---|---|---|
| 1778091118 | 13.33° C | 77% | 1007.9 hPa | 0 mm | - | 329 W/m² | - |
| 1778090815 | 12.22° C | 82% | 1007.9 hPa | 0 mm | - | 634 W/m² | - |
| 1778090511 | 12.22° C | 80% | 1007.9 hPa | 0 mm | - | 355 W/m² | - |
| 1778090208 | 12.22° C | 80% | 1008 hPa | 0 mm | - | 342 W/m² | - |
| 1778089905 | 12.22° C | 81% | 1007.8 hPa | 0 mm | - | 439 W/m² | - |
| 1778089603 | 12.22° C | 81% | 1007.8 hPa | 0 mm | - | 461 W/m² | - |
| 1778089299 | 12.22° C | 83% | 1007.8 hPa | 0 mm | - | 429 W/m² | - |
| 1778088998 | 11.11° C | 84% | 1008.1 hPa | 0 mm | - | 795 W/m² | - |
| 1778088694 | 11.11° C | 86% | 1007.8 hPa | 0 mm | - | 254 W/m² | - |
| 1778088391 | 11.11° C | 86% | 1007.8 hPa | 0 mm | - | 248 W/m² | - |
| 1778088087 | 11.11° C | 87% | 1007.9 hPa | 0 mm | - | 263 W/m² | - |
| 1778087785 | 11.11° C | 86% | 1007.9 hPa | 0 mm | - | 214 W/m² | - |
| 1778087483 | 11.11° C | 86% | 1007.9 hPa | 0 mm | - | 177 W/m² | - |
| 1778087180 | 11.11° C | 88% | 1007.9 hPa | 0 mm | - | 267 W/m² | - |
| 1778086877 | 10.56° C | 91% | 1007.9 hPa | 0 mm | - | 547 W/m² | - |
| 1778086576 | 10° C | 92% | 1007.9 hPa | 0 mm | - | 299 W/m² | - |
| 1778086271 | 10° C | 92% | 1007.9 hPa | 0 mm | - | 141 W/m² | - |
| 1778085969 | 10° C | 93% | 1007.6 hPa | 0 mm | - | 100 W/m² | - |
| 1778085666 | 10° C | 93% | 1007.5 hPa | 0 mm | - | 113 W/m² | - |
| 1778085361 | 10.56° C | 94% | 1007.5 hPa | 0 mm | - | 116 W/m² | - |
| 1778085058 | 10° C | 95% | 1007.5 hPa | 0 mm | - | 151 W/m² | - |
| 1778084754 | 10° C | 96% | 1007.4 hPa | 0 mm | - | 166 W/m² | - |
| 1778084451 | 10° C | 96% | 1007.1 hPa | 0 mm | - | 303 W/m² | - |
| 1778084149 | 10° C | 96% | 1007.4 hPa | 0 mm | - | 212 W/m² | - |
| 1778083846 | 10° C | 96% | 1007.1 hPa | 0 mm | - | 156 W/m² | - |
* Rain latest hour (hover to see other rain measurements)
** Current wind speed in m/s (hover to see current wind gust speed)